Time;durP1;ratioP1;P1;durP2;ratioP2;P2;SDS_P1;SDS_P2;PMS_P1;PMS_P2;Temp;Humidity;BMP_temperature;BMP_pressure;BME280_temperature;BME280_humidity;BME280_pressure;Samples;Min_cycle;Max_cycle;Signal;HPM_P1;HPM_P2
2023/01/22 00:01:11;;;;;;;11.53;7.87;;;0.40;1.00;;;;;;5009598;28;20180;-81
2023/01/22 00:03:38;;;;;;;13.23;7.37;;;0.40;1.00;;;;;;5009043;28;20183;-81
2023/01/22 00:06:04;;;;;;;11.53;8.00;;;0.40;1.00;;;;;;5009549;28;20220;-78
2023/01/22 00:08:31;;;;;;;13.13;8.17;;;0.50;1.00;;;;;;5009548;28;20212;-78
2023/01/22 00:10:56;;;;;;;8.93;7.13;;;0.40;1.00;;;;;;5011609;28;20233;-79
2023/01/22 00:13:24;;;;;;;11.33;8.20;;;0.40;1.00;;;;;;5010304;28;20280;-78
2023/01/22 00:15:50;;;;;;;11.13;7.97;;;0.50;1.00;;;;;;5010498;28;20197;-80
2023/01/22 00:18:16;;;;;;;12.90;7.90;;;0.40;1.00;;;;;;5011396;28;20195;-80
2023/01/22 00:20:49;;;;;;;12.03;7.83;;;0.50;1.00;;;;;;5011277;28;20290;-80
2023/01/22 00:23:15;;;;;;;10.07;7.50;;;0.50;1.00;;;;;;5011815;28;20200;-79
2023/01/22 00:25:41;;;;;;;10.40;7.40;;;0.50;1.00;;;;;;5010806;28;20221;-78
2023/01/22 00:28:07;;;;;;;10.33;8.03;;;0.50;1.00;;;;;;5011282;28;20204;-81
2023/01/22 00:30:33;;;;;;;10.70;7.53;;;0.50;1.00;;;;;;5008794;28;20187;-81
2023/01/22 00:32:58;;;;;;;11.63;7.37;;;0.50;1.00;;;;;;5011000;28;20187;-81
2023/01/22 00:35:24;;;;;;;11.57;7.40;;;0.50;1.00;;;;;;5008860;28;20191;-78
2023/01/22 00:37:50;;;;;;;10.83;7.53;;;0.70;1.00;;;;;;5009827;28;20821;-79
2023/01/22 00:40:16;;;;;;;10.60;7.60;;;0.50;1.00;;;;;;5011312;28;20283;-81
2023/01/22 00:42:42;;;;;;;10.20;8.10;;;0.50;1.00;;;;;;5010681;28;20203;-79
2023/01/22 00:45:08;;;;;;;10.23;8.30;;;0.50;1.00;;;;;;5009403;28;20265;-79
2023/01/22 00:47:34;;;;;;;10.60;7.77;;;0.50;1.00;;;;;;5008996;28;20654;-80
2023/01/22 00:50:01;;;;;;;10.13;8.10;;;0.50;1.00;;;;;;5011281;28;20215;-82
2023/01/22 00:52:26;;;;;;;10.37;8.63;;;0.50;1.00;;;;;;5010360;28;20233;-81
2023/01/22 00:54:52;;;;;;;9.57;7.67;;;0.50;6.20;;;;;;5010164;28;20270;-78
2023/01/22 00:57:20;;;;;;;10.90;7.70;;;0.50;22.70;;;;;;5009233;28;20283;-81
2023/01/22 00:59:46;;;;;;;11.90;8.57;;;0.50;55.30;;;;;;5010800;28;20677;-83
2023/01/22 01:02:13;;;;;;;10.80;8.20;;;0.60;53.00;;;;;;5012229;28;20180;-79
2023/01/22 01:04:38;;;;;;;13.73;9.20;;;0.50;25.70;;;;;;5007872;28;20183;-83
2023/01/22 01:07:04;;;;;;;11.63;9.27;;;0.60;1.70;;;;;;5022767;28;20441;-78
2023/01/22 01:09:30;;;;;;;13.37;8.67;;;0.50;1.00;;;;;;5006483;28;20211;-81
2023/01/22 01:11:55;;;;;;;11.83;8.60;;;0.60;1.00;;;;;;5007640;28;20597;-79
2023/01/22 01:14:21;;;;;;;12.73;8.40;;;0.60;1.00;;;;;;5005590;28;20253;-77
2023/01/22 01:16:48;;;;;;;11.97;8.10;;;0.50;1.00;;;;;;5005946;28;20891;-80
2023/01/22 01:19:16;;;;;;;11.30;8.13;;;0.50;1.00;;;;;;5007474;28;20197;-79
2023/01/22 01:21:45;;;;;;;10.73;7.70;;;0.50;2.30;;;;;;5005651;28;20249;-80
2023/01/22 01:24:11;;;;;;;11.83;8.27;;;0.50;46.90;;;;;;5006329;28;20708;-79
2023/01/22 01:26:38;;;;;;;8.57;7.13;;;0.30;99.90;;;;;;5005002;28;20294;-79
2023/01/22 01:29:05;;;;;;;11.17;8.53;;;0.60;84.70;;;;;;5006623;28;20298;-78
2023/01/22 01:31:30;;;;;;;11.70;7.77;;;0.60;50.80;;;;;;5007221;28;20184;-80
2023/01/22 01:33:56;;;;;;;9.57;7.17;;;0.50;92.10;;;;;;5005415;28;20178;-80
2023/01/22 01:36:23;;;;;;;8.83;7.07;;;0.60;98.80;;;;;;5006182;28;20216;-80
2023/01/22 01:38:50;;;;;;;9.70;7.13;;;0.60;23.50;;;;;;5006565;28;20198;-81
2023/01/22 01:41:19;;;;;;;8.77;6.90;;;0.50;51.60;;;;;;5006102;28;20191;-79
2023/01/22 01:43:46;;;;;;;8.70;7.40;;;0.60;99.70;;;;;;5007213;28;20207;-77
2023/01/22 01:46:24;;;;;;;11.07;8.07;;;0.60;88.00;;;;;;5006585;28;20235;-80
2023/01/22 01:48:54;;;;;;;8.83;7.30;;;0.60;79.40;;;;;;5007482;28;20229;-81
2023/01/22 01:53:59;;;;;;;8.07;6.63;;;0.60;58.30;;;;;;5176413;22;20239;-80
2023/01/22 01:56:34;;;;;;;8.03;6.07;;;0.60;36.50;;;;;;5002690;28;20242;-80
2023/01/22 01:59:04;;;;;;;9.43;6.83;;;0.60;99.00;;;;;;5003334;28;20202;-80
2023/01/22 02:01:31;;;;;;;7.57;6.50;;;0.60;99.90;;;;;;5010077;23;20232;-80
2023/01/22 02:03:58;;;;;;;8.30;6.77;;;0.60;99.90;;;;;;5002110;28;20611;-79
2023/01/22 02:06:25;;;;;;;7.33;6.53;;;0.60;99.90;;;;;;5000659;28;20784;-79
2023/01/22 02:08:52;;;;;;;7.40;6.17;;;0.50;99.90;;;;;;4999503;28;20203;-77
2023/01/22 02:11:20;;;;;;;8.97;6.23;;;0.60;99.90;;;;;;5012025;28;20566;-79
2023/01/22 02:14:00;;;;;;;7.87;6.20;;;0.60;99.90;;;;;;5001137;28;20191;-81
2023/01/22 02:16:25;;;;;;;7.33;6.20;;;0.50;99.90;;;;;;5002106;28;20203;-81
2023/01/22 02:18:51;;;;;;;7.70;6.23;;;0.50;99.90;;;;;;5004121;28;20238;-81
2023/01/22 02:21:43;;;;;;;8.07;5.90;;;0.50;99.90;;;;;;5002790;28;20798;-79
2023/01/22 02:24:14;;;;;;;6.33;5.37;;;0.60;99.90;;;;;;5005400;28;20191;-81
2023/01/22 02:26:41;;;;;;;7.80;6.13;;;0.50;99.90;;;;;;5005268;28;20231;-80
2023/01/22 02:29:08;;;;;;;5.93;5.33;;;0.50;99.90;;;;;;5002745;28;20799;-80
2023/01/22 02:31:36;;;;;;;8.33;5.93;;;0.50;99.90;;;;;;5007086;28;20183;-80
2023/01/22 02:34:02;;;;;;;7.80;5.63;;;0.50;1.00;;;;;;5008731;28;21310;-79
2023/01/22 02:36:29;;;;;;;8.23;6.23;;;0.50;1.00;;;;;;5007821;28;20211;-81
2023/01/22 02:38:54;;;;;;;7.20;6.00;;;0.50;1.00;;;;;;5007417;28;20223;-82
2023/01/22 02:41:20;;;;;;;6.87;5.90;;;0.50;1.00;;;;;;5023930;28;20897;-82
2023/01/22 02:43:46;;;;;;;6.47;5.47;;;0.50;1.00;;;;;;5024690;28;20286;-80
2023/01/22 02:46:12;;;;;;;6.93;5.40;;;0.50;1.00;;;;;;5007877;28;20206;-81
2023/01/22 02:48:37;;;;;;;7.33;6.10;;;0.50;1.00;;;;;;5009470;28;20542;-82
2023/01/22 02:51:03;;;;;;;6.93;6.03;;;0.50;1.00;;;;;;5007499;28;20183;-80
2023/01/22 02:53:29;;;;;;;7.23;5.70;;;0.50;1.00;;;;;;5008405;28;20362;-79
2023/01/22 02:55:54;;;;;;;6.40;5.30;;;0.50;53.60;;;;;;5023866;28;20713;-76
2023/01/22 02:58:20;;;;;;;6.10;5.20;;;0.50;99.90;;;;;;5024489;28;20190;-83
2023/01/22 03:00:45;;;;;;;6.40;5.20;;;0.50;99.90;;;;;;5007815;28;20238;-77
2023/01/22 03:03:14;;;;;;;7.00;5.30;;;0.50;99.90;;;;;;5008016;28;20183;-82
2023/01/22 03:05:51;;;;;;;6.37;5.40;;;0.50;99.90;;;;;;5009103;28;20797;-85
2023/01/22 03:08:18;;;;;;;7.13;6.20;;;0.40;99.90;;;;;;5006750;28;20912;-81
2023/01/22 03:10:44;;;;;;;5.63;4.97;;;0.50;99.90;;;;;;5008209;28;20191;-80
2023/01/22 03:21:22;;;;;;;4.73;4.10;;;0.50;99.90;;;;;;5010276;28;20222;-80
2023/01/22 03:23:50;;;;;;;4.00;3.53;;;0.60;99.90;;;;;;5007446;28;20269;-83
2023/01/22 03:26:16;;;;;;;4.03;3.60;;;0.50;99.90;;;;;;5009419;28;20326;-82
2023/01/22 03:28:43;;;;;;;4.27;3.60;;;0.50;99.90;;;;;;5027771;28;20213;-83
2023/01/22 03:31:08;;;;;;;4.20;3.80;;;0.60;99.90;;;;;;5027059;28;20523;-80
2023/01/22 03:33:34;;;;;;;3.70;3.20;;;0.60;99.90;;;;;;5006216;28;20193;-79
2023/01/22 03:36:06;;;;;;;3.90;3.40;;;0.60;99.90;;;;;;5022428;28;20572;-81
2023/01/22 03:38:31;;;;;;;3.80;3.37;;;0.60;99.90;;;;;;5008141;28;20195;-82
2023/01/22 03:41:01;;;;;;;3.70;3.30;;;0.60;99.90;;;;;;5006975;28;20195;-81
2023/01/22 03:43:27;;;;;;;3.50;3.20;;;0.60;99.90;;;;;;5022959;28;20298;-80
2023/01/22 03:45:53;;;;;;;3.97;3.57;;;0.60;99.90;;;;;;5006049;28;20369;-81
2023/01/22 03:48:18;;;;;;;3.50;3.20;;;0.50;99.90;;;;;;5007126;28;20282;-81
2023/01/22 03:50:44;;;;;;;4.47;3.23;;;0.50;99.90;;;;;;5005937;28;20199;-80
2023/01/22 03:53:09;;;;;;;3.90;3.17;;;0.60;99.90;;;;;;5007324;28;20179;-81
2023/01/22 03:55:35;;;;;;;3.90;3.03;;;0.60;99.90;;;;;;5005573;28;20238;-79
2023/01/22 03:58:00;;;;;;;4.00;3.40;;;0.60;99.90;;;;;;5006846;28;21136;-80
2023/01/22 04:00:26;;;;;;;3.13;2.83;;;0.50;99.90;;;;;;5023509;28;20191;-81
2023/01/22 04:02:54;;;;;;;3.13;2.77;;;0.50;99.90;;;;;;5007971;28;20687;-80
2023/01/22 04:05:20;;;;;;;3.30;3.00;;;0.50;99.90;;;;;;5009398;28;20269;-81
2023/01/22 04:07:49;;;;;;;3.83;3.53;;;0.50;99.90;;;;;;5022374;28;20446;-80
2023/01/22 04:10:15;;;;;;;3.50;3.20;;;0.50;99.90;;;;;;5006858;28;20210;-81
2023/01/22 04:12:41;;;;;;;3.50;3.20;;;0.60;99.90;;;;;;5006864;28;20183;-80
2023/01/22 04:15:07;;;;;;;3.43;2.80;;;0.50;99.90;;;;;;5007546;28;20187;-80
2023/01/22 04:17:33;;;;;;;3.20;2.90;;;0.60;99.90;;;;;;5006056;28;20196;-80
2023/01/22 04:19:58;;;;;;;3.53;3.00;;;0.50;99.90;;;;;;5007832;28;20267;-79
2023/01/22 04:22:24;;;;;;;2.73;2.53;;;0.50;99.90;;;;;;5008010;28;20183;-81
2023/01/22 04:24:49;;;;;;;2.67;2.47;;;0.50;99.90;;;;;;5007122;28;20286;-82
2023/01/22 04:27:15;;;;;;;2.43;2.23;;;0.50;99.90;;;;;;5006525;28;20208;-81
2023/01/22 04:29:40;;;;;;;2.93;2.53;;;0.50;99.90;;;;;;5007450;28;20211;-80
2023/01/22 04:32:06;;;;;;;2.50;2.30;;;0.50;99.90;;;;;;5008269;28;20192;-82
2023/01/22 04:34:31;;;;;;;3.47;2.70;;;0.50;99.90;;;;;;5006809;28;20195;-79
2023/01/22 04:36:57;;;;;;;2.83;2.60;;;0.40;99.90;;;;;;5006538;28;20226;-81
2023/01/22 04:39:22;;;;;;;2.93;2.50;;;0.50;1.00;;;;;;5008370;28;20235;-79
2023/01/22 04:41:48;;;;;;;3.17;2.40;;;0.60;1.00;;;;;;5007169;28;20215;-82
2023/01/22 04:44:13;;;;;;;2.37;2.17;;;0.60;99.90;;;;;;5006154;28;20219;-82
2023/01/22 04:46:39;;;;;;;2.30;2.10;;;0.50;99.90;;;;;;5006706;28;20208;-80
2023/01/22 04:49:04;;;;;;;2.60;2.30;;;0.50;99.90;;;;;;5008149;28;20230;-80
2023/01/22 04:51:30;;;;;;;2.67;2.20;;;0.50;99.90;;;;;;5006530;28;20191;-81
2023/01/22 04:53:55;;;;;;;2.30;2.10;;;0.60;99.90;;;;;;5007078;28;20665;-81
2023/01/22 04:56:21;;;;;;;2.00;1.80;;;0.50;99.90;;;;;;5023202;28;20787;-80
2023/01/22 04:58:48;;;;;;;2.47;2.27;;;0.50;99.90;;;;;;5022581;28;20661;-79
2023/01/22 05:01:13;;;;;;;2.80;2.50;;;0.50;1.00;;;;;;5007211;28;20286;-80
2023/01/22 05:03:39;;;;;;;2.60;2.40;;;0.50;1.00;;;;;;5023342;28;20254;-81
2023/01/22 05:06:05;;;;;;;2.80;2.20;;;0.50;1.00;;;;;;5005659;28;20218;-81
2023/01/22 05:08:30;;;;;;;3.00;2.47;;;0.50;1.00;;;;;;5023313;28;20212;-80
2023/01/22 05:11:00;;;;;;;2.33;2.13;;;0.60;1.00;;;;;;5007300;28;20236;-79
2023/01/22 05:13:25;;;;;;;2.30;2.10;;;0.50;1.00;;;;;;5006757;28;20194;-80
2023/01/22 05:15:51;;;;;;;2.10;1.90;;;0.60;1.00;;;;;;5022902;28;20199;-82
2023/01/22 05:18:16;;;;;;;2.20;2.00;;;0.50;1.00;;;;;;5007304;28;20270;-79
2023/01/22 05:20:42;;;;;;;2.20;2.00;;;0.50;1.00;;;;;;5012322;28;20273;-81
2023/01/22 05:23:07;;;;;;;2.50;2.20;;;0.50;1.00;;;;;;5006089;28;20236;-82
2023/01/22 05:25:33;;;;;;;2.63;2.43;;;0.50;1.00;;;;;;5004961;28;20715;-81
2023/01/22 05:27:58;;;;;;;2.53;2.07;;;0.50;1.00;;;;;;5006955;28;20192;-82
2023/01/22 05:30:24;;;;;;;2.10;1.90;;;0.50;1.00;;;;;;5007872;28;20218;-81
2023/01/22 05:32:54;;;;;;;2.30;2.10;;;0.50;1.00;;;;;;5005663;28;20195;-79
2023/01/22 05:35:21;;;;;;;3.07;2.17;;;0.50;1.00;;;;;;5021276;28;20195;-81
2023/01/22 05:37:47;;;;;;;2.10;1.90;;;0.60;1.00;;;;;;5006330;28;20187;-79
2023/01/22 05:40:12;;;;;;;3.60;2.27;;;0.60;1.00;;;;;;5005392;28;20249;-79
2023/01/22 05:42:38;;;;;;;2.80;2.50;;;0.60;1.00;;;;;;5006622;28;20538;-81
2023/01/22 05:45:04;;;;;;;2.30;2.10;;;0.60;1.00;;;;;;5004981;28;20271;-83
2023/01/22 05:47:30;;;;;;;1.80;1.70;;;0.50;1.00;;;;;;5008259;28;20258;-80
2023/01/22 05:49:55;;;;;;;2.47;2.17;;;0.50;1.00;;;;;;5004736;28;20188;-80
2023/01/22 05:52:21;;;;;;;2.07;1.87;;;0.50;1.00;;;;;;5006054;28;20183;-81
2023/01/22 05:54:46;;;;;;;1.97;1.77;;;0.50;1.00;;;;;;5005990;28;20184;-78
2023/01/22 05:57:12;;;;;;;2.07;1.87;;;0.60;1.00;;;;;;5004782;28;20216;-80
2023/01/22 05:59:37;;;;;;;1.83;1.73;;;0.60;1.00;;;;;;5006915;28;20312;-81
2023/01/22 06:02:03;;;;;;;2.20;2.00;;;0.50;1.00;;;;;;5009312;28;20187;-80
2023/01/22 06:04:28;;;;;;;3.50;2.70;;;0.50;1.00;;;;;;5007928;28;20223;-80
2023/01/22 06:06:54;;;;;;;2.50;2.30;;;0.40;1.00;;;;;;5010749;28;20207;-81
2023/01/22 06:09:20;;;;;;;2.53;2.23;;;0.50;1.00;;;;;;5025102;28;20269;-82
2023/01/22 06:11:45;;;;;;;2.20;2.00;;;0.50;1.00;;;;;;5020762;28;20216;-80
2023/01/22 06:14:11;;;;;;;2.00;1.80;;;0.50;1.00;;;;;;5005533;28;20539;-83
2023/01/22 06:16:36;;;;;;;1.87;1.63;;;0.50;1.00;;;;;;5020279;28;20208;-83
2023/01/22 06:19:02;;;;;;;1.93;1.83;;;0.50;1.00;;;;;;5004883;28;20555;-78
2023/01/22 06:21:27;;;;;;;1.60;1.43;;;0.50;1.00;;;;;;5004440;28;20724;-82
2023/01/22 06:23:53;;;;;;;1.90;1.80;;;0.50;1.00;;;;;;5003838;28;20190;-81
2023/01/22 06:26:18;;;;;;;1.70;1.60;;;0.50;1.00;;;;;;5005995;28;20223;-82
2023/01/22 06:28:44;;;;;;;1.60;1.50;;;0.50;1.00;;;;;;5007249;28;20755;-83
2023/01/22 06:31:09;;;;;;;2.13;1.93;;;0.50;1.00;;;;;;5004393;28;20262;-82
2023/01/22 06:33:36;;;;;;;3.50;2.80;;;0.60;1.00;;;;;;5003036;28;20238;-78
2023/01/22 06:36:02;;;;;;;1.93;1.80;;;0.60;1.00;;;;;;5002768;28;20219;-80
2023/01/22 06:38:28;;;;;;;1.50;1.40;;;0.60;1.00;;;;;;5003731;28;20446;-80
2023/01/22 06:40:55;;;;;;;1.37;1.10;;;0.60;1.00;;;;;;5003862;28;20211;-79
2023/01/22 06:43:22;;;;;;;1.33;1.23;;;0.60;1.00;;;;;;5004637;28;20187;-82
2023/01/22 06:45:47;;;;;;;1.70;1.43;;;0.60;99.90;;;;;;5004033;28;20631;-82
2023/01/22 06:48:13;;;;;;;1.57;1.47;;;0.60;99.90;;;;;;5004682;28;20262;-81
2023/01/22 06:50:39;;;;;;;1.70;1.60;;;2.00;99.90;;;;;;5002727;28;20175;-79
2023/01/22 06:53:04;;;;;;;1.80;1.70;;;0.60;99.90;;;;;;5004431;28;20188;-80
2023/01/22 06:55:30;;;;;;;1.90;1.80;;;0.60;99.90;;;;;;5002721;28;20207;-80
2023/01/22 06:57:56;;;;;;;1.60;1.50;;;0.60;99.90;;;;;;5003016;28;20217;-83
2023/01/22 07:00:22;;;;;;;1.70;1.60;;;0.60;99.90;;;;;;5003110;28;20601;-82
2023/01/22 07:02:49;;;;;;;2.10;1.90;;;0.60;99.90;;;;;;5003197;28;20809;-79
2023/01/22 07:05:14;;;;;;;1.80;1.70;;;0.60;99.90;;;;;;5002530;28;20192;-80
2023/01/22 07:07:41;;;;;;;1.73;1.63;;;0.60;99.90;;;;;;5002558;28;20579;-82
2023/01/22 07:10:08;;;;;;;1.67;1.50;;;0.60;99.90;;;;;;5003925;28;20208;-81
2023/01/22 07:12:33;;;;;;;1.57;1.47;;;0.70;99.90;;;;;;5004707;28;20217;-80
2023/01/22 07:14:59;;;;;;;1.80;1.70;;;0.60;99.90;;;;;;5003741;28;20254;-76
2023/01/22 07:17:24;;;;;;;2.40;1.70;;;0.70;99.90;;;;;;5007408;28;20210;-81
2023/01/22 07:19:50;;;;;;;1.80;1.70;;;0.60;99.90;;;;;;5009707;28;20195;-79
2023/01/22 07:22:15;;;;;;;2.20;2.00;;;0.70;1.00;;;;;;5009282;28;20191;-78
2023/01/22 07:24:41;;;;;;;2.47;2.27;;;0.70;1.00;;;;;;5007307;28;20192;-82
2023/01/22 07:27:06;;;;;;;2.27;2.07;;;0.70;1.00;;;;;;5008509;28;20207;-84
2023/01/22 07:29:32;;;;;;;2.53;2.33;;;0.70;1.00;;;;;;5008250;28;20741;-83
2023/01/22 07:31:57;;;;;;;2.40;2.20;;;0.70;1.00;;;;;;5023316;28;20192;-80
2023/01/22 07:34:23;;;;;;;6.47;4.50;;;0.70;1.00;;;;;;5007629;28;20191;-78
2023/01/22 07:36:48;;;;;;;7.03;4.40;;;0.70;1.00;;;;;;5006832;28;20402;-81
2023/01/22 07:39:14;;;;;;;3.93;3.40;;;0.80;1.00;;;;;;5023039;28;20191;-80
2023/01/22 07:41:40;;;;;;;12.10;8.67;;;0.70;1.00;;;;;;5022828;28;20195;-79
2023/01/22 07:44:07;;;;;;;11.33;8.63;;;0.70;1.00;;;;;;5022778;28;20210;-81
2023/01/22 07:46:37;;;;;;;4.57;4.17;;;0.70;1.00;;;;;;5006313;28;20580;-80
2023/01/22 07:49:03;;;;;;;9.30;8.37;;;0.70;1.00;;;;;;5007959;28;20227;-81
2023/01/22 07:51:29;;;;;;;8.27;7.47;;;0.70;1.00;;;;;;5008327;28;20195;-81
2023/01/22 07:53:54;;;;;;;6.00;5.40;;;0.70;1.00;;;;;;5007671;28;20187;-81
2023/01/22 07:56:21;;;;;;;24.83;21.03;;;0.70;1.00;;;;;;5011097;28;20208;-81
2023/01/22 07:58:46;;;;;;;51.33;32.67;;;0.70;1.00;;;;;;5012173;28;20195;-77
2023/01/22 08:01:12;;;;;;;51.03;32.63;;;0.70;1.00;;;;;;5005440;28;20254;-82
2023/01/22 08:03:38;;;;;;;9.83;7.90;;;0.80;1.00;;;;;;5003604;28;20266;-82
2023/01/22 08:06:09;;;;;;;8.33;6.93;;;0.80;1.00;;;;;;5002533;28;20212;-81
2023/01/22 08:08:35;;;;;;;5.47;4.97;;;0.80;1.00;;;;;;5003866;28;20207;-80
2023/01/22 08:11:00;;;;;;;20.53;17.20;;;0.80;1.00;;;;;;5005331;28;20194;-82
2023/01/22 08:13:26;;;;;;;10.03;9.00;;;0.80;1.00;;;;;;5004961;28;20562;-81
2023/01/22 08:15:53;;;;;;;13.87;10.23;;;0.80;1.00;;;;;;5003803;28;20203;-81
2023/01/22 08:18:19;;;;;;;8.27;7.23;;;0.70;1.00;;;;;;5005004;28;20233;-76
2023/01/22 08:20:45;;;;;;;29.30;24.53;;;0.80;1.00;;;;;;5005812;28;20183;-81
2023/01/22 08:23:10;;;;;;;28.90;21.00;;;0.80;1.00;;;;;;5003840;28;20548;-80
2023/01/22 08:25:36;;;;;;;6.00;5.40;;;0.90;99.90;;;;;;5020089;28;20211;-82
2023/01/22 08:28:03;;;;;;;10.67;9.47;;;0.90;99.90;;;;;;5002775;28;20220;-81
2023/01/22 08:30:30;;;;;;;19.43;15.50;;;0.90;99.90;;;;;;5020347;28;20219;-80
2023/01/22 08:32:55;;;;;;;11.47;10.13;;;1.00;99.90;;;;;;5007811;28;20640;-77
2023/01/22 08:35:21;;;;;;;7.27;6.00;;;1.00;99.90;;;;;;5006780;28;20250;-80
2023/01/22 08:37:46;;;;;;;31.30;22.57;;;1.00;99.90;;;;;;5002303;28;20180;-80
2023/01/22 08:40:12;;;;;;;9.20;8.03;;;1.00;1.50;;;;;;5001695;28;20190;-80
2023/01/22 08:42:39;;;;;;;18.73;14.23;;;0.90;1.00;;;;;;5005358;28;20191;-83
2023/01/22 08:45:05;;;;;;;14.87;13.30;;;1.00;19.70;;;;;;5006954;28;20188;-79
2023/01/22 08:47:31;;;;;;;12.87;11.40;;;1.00;1.00;;;;;;5003908;28;20669;-82
2023/01/22 08:49:57;;;;;;;6.00;5.40;;;1.10;1.00;;;;;;5008296;28;20266;-84
2023/01/22 08:52:22;;;;;;;7.70;6.90;;;1.00;1.00;;;;;;5007381;28;20175;-80
2023/01/22 08:54:48;;;;;;;5.57;5.07;;;1.00;1.00;;;;;;5006179;28;21528;-78
2023/01/22 08:57:13;;;;;;;11.97;10.87;;;1.10;1.00;;;;;;5007870;28;20207;-82
2023/01/22 08:59:39;;;;;;;10.87;9.77;;;1.10;1.00;;;;;;5008577;28;20192;-80
2023/01/22 09:02:05;;;;;;;12.87;9.53;;;1.10;1.00;;;;;;5005742;28;20200;-78
2023/01/22 09:04:31;;;;;;;7.33;6.63;;;1.10;1.00;;;;;;5005913;28;20215;-82
2023/01/22 09:06:57;;;;;;;20.83;15.97;;;1.10;1.00;;;;;;5004294;28;20317;-81
2023/01/22 09:09:22;;;;;;;6.67;5.90;;;1.10;1.00;;;;;;5009713;28;20227;-81
2023/01/22 09:11:48;;;;;;;15.00;12.77;;;1.10;1.00;;;;;;5008095;28;20188;-81
2023/01/22 09:14:13;;;;;;;6.53;5.93;;;1.00;99.90;;;;;;5011157;28;20510;-82
2023/01/22 09:16:39;;;;;;;20.17;18.07;;;1.00;99.90;;;;;;5013742;28;20219;-82
2023/01/22 09:19:06;;;;;;;16.43;13.23;;;1.00;1.00;;;;;;5014353;28;20188;-82
2023/01/22 09:21:32;;;;;;;7.30;6.60;;;1.00;1.00;;;;;;5012455;28;20196;-81
2023/01/22 09:23:59;;;;;;;9.60;8.60;;;1.00;1.00;;;;;;5014041;28;20243;-82
2023/01/22 09:26:24;;;;;;;8.17;7.33;;;1.70;1.00;;;;;;5011340;28;20211;-83
2023/01/22 09:28:50;;;;;;;16.93;15.17;;;1.00;1.00;;;;;;5012502;28;20592;-81
2023/01/22 09:31:16;;;;;;;13.23;11.87;;;1.00;1.00;;;;;;5009144;28;20406;-82
2023/01/22 09:33:41;;;;;;;14.67;12.63;;;1.00;1.00;;;;;;5008852;28;20710;-81
2023/01/22 09:36:15;;;;;;;39.93;27.23;;;0.90;1.00;;;;;;5004421;28;20226;-80
2023/01/22 09:38:42;;;;;;;27.77;21.33;;;0.90;1.00;;;;;;5005741;28;20191;-79
2023/01/22 09:41:43;;;;;;;13.37;11.40;;;1.00;76.40;;;;;;5007347;28;20657;-80
2023/01/22 09:44:23;;;;;;;10.60;9.50;;;1.20;91.60;;;;;;5007849;28;20267;-81
2023/01/22 09:46:52;;;;;;;23.23;18.83;;;1.10;1.00;;;;;;5004991;28;20250;-81
2023/01/22 09:49:20;;;;;;;19.73;17.73;;;1.20;1.00;;;;;;5003641;28;20212;-80
2023/01/22 09:51:55;;;;;;;15.17;13.67;;;1.20;1.00;;;;;;5006540;28;20223;-78
2023/01/22 09:54:22;;;;;;;12.43;11.23;;;1.20;1.00;;;;;;5007560;28;20192;-81
2023/01/22 09:56:52;;;;;;;9.00;8.10;;;1.10;99.90;;;;;;5004460;28;20550;-81
2023/01/22 09:59:31;;;;;;;9.83;8.83;;;1.10;99.90;;;;;;5007933;28;20218;-81
2023/01/22 10:02:33;;;;;;;11.43;10.20;;;1.10;99.90;;;;;;5001482;28;20659;-79
2023/01/22 10:05:13;;;;;;;9.33;8.10;;;1.20;99.90;;;;;;5014831;28;20588;-82
2023/01/22 10:07:46;;;;;;;11.43;10.13;;;1.20;99.90;;;;;;5005534;28;20195;-80
2023/01/22 10:10:23;;;;;;;9.37;8.43;;;1.30;99.90;;;;;;5007351;28;20704;-83
2023/01/22 10:13:10;;;;;;;7.40;6.70;;;1.30;99.90;;;;;;5004962;28;20225;-83
2023/01/22 10:15:36;;;;;;;8.33;7.53;;;1.30;99.90;;;;;;5003429;28;20208;-82
2023/01/22 10:18:12;;;;;;;7.50;6.80;;;1.30;99.90;;;;;;5004735;28;20179;-79
2023/01/22 10:20:39;;;;;;;7.93;6.80;;;1.30;99.90;;;;;;5005377;28;20641;-81
2023/01/22 10:23:17;;;;;;;6.80;6.10;;;1.20;64.60;;;;;;5006024;28;20190;-81
2023/01/22 10:25:45;;;;;;;11.60;10.50;;;1.20;99.90;;;;;;5001706;28;20631;-81
2023/01/22 10:28:12;;;;;;;8.33;7.07;;;1.20;99.90;;;;;;5003608;28;20187;-80
2023/01/22 10:30:48;;;;;;;8.00;6.93;;;1.30;99.90;;;;;;5001085;28;20222;-81
2023/01/22 10:33:21;;;;;;;8.43;6.63;;;1.20;74.50;;;;;;5001212;28;20188;-80
2023/01/22 10:35:49;;;;;;;11.43;7.90;;;1.20;99.90;;;;;;4998124;28;20207;-82
2023/01/22 10:38:28;;;;;;;10.87;8.00;;;1.20;99.90;;;;;;5000764;28;20310;-80
2023/01/22 10:40:57;;;;;;;8.93;7.90;;;1.20;99.90;;;;;;5003755;28;20171;-81
2023/01/22 10:43:33;;;;;;;11.70;10.60;;;1.20;99.90;;;;;;5004344;28;20210;-83
2023/01/22 10:46:25;;;;;;;8.03;7.23;;;1.20;99.90;;;;;;5003188;28;20684;-80
2023/01/22 10:49:07;;;;;;;8.10;6.97;;;1.30;1.00;;;;;;5000783;28;20207;-81
2023/01/22 10:51:39;;;;;;;25.43;23.13;;;1.30;99.90;;;;;;5002959;28;20183;-79
2023/01/22 10:54:19;;;;;;;14.03;12.83;;;1.40;99.90;;;;;;5002618;28;20270;-82
2023/01/22 10:56:46;;;;;;;9.83;8.80;;;1.40;99.90;;;;;;5000700;28;20207;-82
2023/01/22 10:59:27;;;;;;;7.70;7.00;;;1.40;99.90;;;;;;5003508;28;20218;-83
2023/01/22 11:02:17;;;;;;;9.33;7.97;;;1.40;1.00;;;;;;5002895;28;20203;-79
2023/01/22 11:04:43;;;;;;;8.40;7.60;;;1.30;1.00;;;;;;5003668;28;20188;-81
2023/01/22 11:07:29;;;;;;;7.60;6.80;;;1.30;1.00;;;;;;5004890;28;20222;-82
2023/01/22 11:10:22;;;;;;;14.60;13.30;;;1.50;1.00;;;;;;5001358;28;20218;-79
2023/01/22 11:12:58;;;;;;;28.13;25.43;;;1.50;1.00;;;;;;5003463;28;20195;-79
2023/01/22 11:15:52;;;;;;;14.57;13.07;;;1.50;1.00;;;;;;5005718;28;20269;-80
2023/01/22 11:18:27;;;;;;;8.80;8.00;;;1.40;99.90;;;;;;5020375;28;20179;-80
2023/01/22 11:20:56;;;;;;;10.43;9.37;;;1.30;99.90;;;;;;5004393;28;20183;-80
2023/01/22 11:23:55;;;;;;;11.10;9.60;;;1.30;1.00;;;;;;5019748;28;20195;-79
2023/01/22 11:26:49;;;;;;;12.00;10.73;;;1.30;1.00;;;;;;5004046;28;20230;-82
2023/01/22 11:29:44;;;;;;;12.50;10.90;;;1.40;1.00;;;;;;5020180;28;20260;-83
2023/01/22 11:32:55;;;;;;;11.37;10.17;;;1.40;1.00;;;;;;5005968;28;20245;-80
2023/01/22 11:35:43;;;;;;;13.60;11.67;;;1.50;99.90;;;;;;5007205;28;20670;-81
2023/01/22 11:38:09;;;;;;;34.03;29.13;;;1.40;99.90;;;;;;5021639;28;20184;-79
2023/01/22 11:40:59;;;;;;;15.47;13.80;;;1.30;99.90;;;;;;5005867;28;20190;-80
2023/01/22 11:43:38;;;;;;;12.80;11.50;;;1.30;1.00;;;;;;5005987;28;20203;-84
2023/01/22 11:46:39;;;;;;;10.90;9.80;;;1.20;1.00;;;;;;5006807;28;21032;-78
2023/01/22 11:49:45;;;;;;;63.17;38.00;;;1.30;1.00;;;;;;5002086;28;20661;-82
2023/01/22 11:52:34;;;;;;;17.27;15.43;;;1.20;1.00;;;;;;5005550;28;20188;-82
2023/01/22 11:55:21;;;;;;;10.53;9.10;;;1.20;67.60;;;;;;5004869;28;20847;-80
2023/01/22 11:58:01;;;;;;;14.33;12.63;;;1.10;91.50;;;;;;5007806;28;20203;-82
2023/01/22 12:00:44;;;;;;;17.97;14.97;;;1.00;99.90;;;;;;5009125;28;20223;-84
2023/01/22 12:03:25;;;;;;;28.43;19.57;;;1.10;99.90;;;;;;5005364;28;20187;-79
2023/01/22 12:06:23;;;;;;;102.47;50.40;;;1.10;99.90;;;;;;5005980;28;20203;-80
2023/01/22 12:09:02;;;;;;;20.87;17.77;;;1.10;99.90;;;;;;4993630;28;20226;-81
2023/01/22 12:12:02;;;;;;;31.73;19.23;;;1.10;99.90;;;;;;5020420;28;20183;-84
2023/01/22 12:14:46;;;;;;;142.17;62.57;;;1.10;99.90;;;;;;5005406;28;20184;-80
2023/01/22 12:17:53;;;;;;;178.23;76.13;;;1.20;99.90;;;;;;5005783;28;20214;-80
2023/01/22 12:20:37;;;;;;;245.40;114.30;;;1.00;99.90;;;;;;5005973;28;20191;-80
2023/01/22 12:23:16;;;;;;;87.50;42.63;;;1.00;99.90;;;;;;5020801;28;20235;-80
2023/01/22 12:25:41;;;;;;;40.47;25.20;;;1.00;99.90;;;;;;5005051;28;20214;-80
2023/01/22 12:28:14;;;;;;;64.80;35.33;;;1.10;99.90;;;;;;5006182;28;20261;-81
2023/01/22 12:30:49;;;;;;;223.10;104.43;;;1.10;99.90;;;;;;5003360;28;20211;-82
2023/01/22 12:33:20;;;;;;;222.27;102.33;;;1.10;1.00;;;;;;5004503;28;20278;-80
2023/01/22 12:35:50;;;;;;;420.60;214.30;;;1.20;1.00;;;;;;5004413;28;20719;-80
2023/01/22 12:38:34;;;;;;;160.40;84.10;;;1.30;1.00;;;;;;5006940;28;20187;-79
2023/01/22 12:41:27;;;;;;;25.17;17.70;;;1.20;99.90;;;;;;5005893;28;20551;-81
2023/01/22 12:43:58;;;;;;;133.30;66.27;;;1.20;99.90;;;;;;5004752;28;20270;-80
2023/01/22 12:46:37;;;;;;;44.73;27.03;;;1.20;99.90;;;;;;5006015;28;20247;-84
2023/01/22 12:49:08;;;;;;;46.87;27.03;;;1.20;99.90;;;;;;5020397;28;20207;-80
2023/01/22 12:51:51;;;;;;;14.30;11.23;;;1.20;99.90;;;;;;5003649;28;20195;-79
2023/01/22 12:54:20;;;;;;;13.27;9.33;;;1.20;99.90;;;;;;5018947;28;20196;-79
2023/01/22 12:56:47;;;;;;;27.97;21.47;;;1.20;99.90;;;;;;5003546;28;20246;-81
2023/01/22 12:59:34;;;;;;;10.70;9.60;;;1.30;99.90;;;;;;5004563;28;20925;-80
2023/01/22 13:02:19;;;;;;;11.20;9.23;;;1.20;99.90;;;;;;5019334;28;20199;-80
2023/01/22 13:04:44;;;;;;;27.30;22.27;;;1.20;99.90;;;;;;5002871;28;20337;-82
2023/01/22 13:07:28;;;;;;;19.83;16.30;;;1.30;99.90;;;;;;5005989;28;20286;-81
2023/01/22 13:10:20;;;;;;;20.87;17.27;;;1.30;99.90;;;;;;5019489;28;20270;-81
2023/01/22 13:12:53;;;;;;;13.97;12.33;;;0.30;36.10;;;;;;5003300;28;20187;-83
2023/01/22 13:15:26;;;;;;;10.13;8.93;;;1.30;10.20;;;;;;5006018;28;20214;-83
2023/01/22 13:18:15;;;;;;;8.57;7.67;;;1.30;99.90;;;;;;5022362;28;20188;-80
2023/01/22 13:20:57;;;;;;;11.90;9.10;;;1.40;99.90;;;;;;5005749;28;20249;-85